createdAt,value
2023-02-20T00:01:37.128Z,2.63
2023-02-20T00:04:04.851Z,2.63
2023-02-20T00:06:31.850Z,2.63
2023-02-20T00:08:59.238Z,2.77
2023-02-20T00:11:26.681Z,2.57
2023-02-20T00:13:54.052Z,2.70
2023-02-20T00:16:21.116Z,2.60
2023-02-20T00:18:48.048Z,2.60
2023-02-20T00:21:15.668Z,2.60
2023-02-20T00:23:42.705Z,2.63
2023-02-20T00:26:12.906Z,2.60
2023-02-20T00:28:44.067Z,2.70
2023-02-20T00:31:20.534Z,2.60
2023-02-20T00:33:47.689Z,2.60
2023-02-20T00:36:19.600Z,2.60
2023-02-20T00:38:47.417Z,2.67
2023-02-20T00:41:17.306Z,2.53
2023-02-20T00:43:44.419Z,2.63
2023-02-20T00:46:14.109Z,2.70
2023-02-20T00:48:42.544Z,2.70
2023-02-20T00:51:28.903Z,2.67
2023-02-20T00:53:55.976Z,2.80
2023-02-20T00:56:23.332Z,2.67
2023-02-20T00:58:50.443Z,2.63
2023-02-20T01:01:17.461Z,2.70
2023-02-20T01:03:44.802Z,2.70
2023-02-20T01:06:12.393Z,2.70
2023-02-20T01:08:40.017Z,2.67
2023-02-20T01:11:07.010Z,2.70
2023-02-20T01:13:34.469Z,2.60
2023-02-20T01:16:01.545Z,2.63
2023-02-20T01:18:29.251Z,2.60
2023-02-20T01:20:56.400Z,2.67
2023-02-20T01:23:23.552Z,2.60
2023-02-20T01:25:50.610Z,2.60
2023-02-20T01:28:17.980Z,2.60
2023-02-20T01:30:45.428Z,2.63
2023-02-20T01:33:12.906Z,2.70
2023-02-20T01:35:39.858Z,2.60
2023-02-20T01:38:06.886Z,2.60
2023-02-20T01:40:35.532Z,2.67
2023-02-20T01:43:04.509Z,2.60
2023-02-20T01:45:40.641Z,2.63
2023-02-20T01:48:19.642Z,2.70
2023-02-20T01:50:58.470Z,2.60
2023-02-20T01:53:29.691Z,2.70
2023-02-20T01:56:07.721Z,2.60
2023-02-20T01:58:44.392Z,2.70
2023-02-20T02:01:12.981Z,2.60
2023-02-20T02:03:47.856Z,2.60
2023-02-20T02:06:17.484Z,2.63
2023-02-20T02:08:46.330Z,2.60
2023-02-20T02:11:20.099Z,2.67
2023-02-20T02:13:47.560Z,2.70
2023-02-20T02:16:26.456Z,2.60
2023-02-20T02:19:32.226Z,2.63
2023-02-20T02:23:24.287Z,2.70
2023-02-20T02:26:42.107Z,2.60
2023-02-20T02:29:45.616Z,2.57
2023-02-20T02:32:22.288Z,2.77
2023-02-20T02:35:27.924Z,2.70
2023-02-20T02:38:27.330Z,2.70
2023-02-20T02:41:01.910Z,2.80
2023-02-20T02:44:19.761Z,2.60
2023-02-20T02:47:04.006Z,2.60
2023-02-20T02:49:57.116Z,2.63
2023-02-20T02:52:38.732Z,2.60
2023-02-20T02:55:10.607Z,2.60
2023-02-20T02:57:37.645Z,2.63
2023-02-20T03:00:20.585Z,2.63
2023-02-20T03:03:00.090Z,2.67
2023-02-20T03:06:16.366Z,2.70
2023-02-20T03:08:57.537Z,2.67
2023-02-20T03:11:31.106Z,2.70
2023-02-20T03:14:40.515Z,2.70
2023-02-20T03:17:36.951Z,2.70
2023-02-20T03:20:15.530Z,2.70
2023-02-20T03:23:00.089Z,2.80
2023-02-20T03:25:39.460Z,2.67
2023-02-20T03:28:18.083Z,2.70
2023-02-20T03:31:04.842Z,2.60
2023-02-20T03:34:00.372Z,2.70
2023-02-20T03:37:00.912Z,2.63
2023-02-20T03:39:58.620Z,2.67
2023-02-20T03:42:47.094Z,2.60
2023-02-20T03:45:26.618Z,2.70
2023-02-20T03:48:01.952Z,2.60
2023-02-20T03:50:31.673Z,2.67
2023-02-20T03:53:00.050Z,2.60
2023-02-20T03:55:27.493Z,2.60
2023-02-20T03:58:04.434Z,2.60
2023-02-20T04:00:43.452Z,2.70
2023-02-20T04:03:23.650Z,2.70
2023-02-20T04:05:57.887Z,2.70
2023-02-20T04:09:10.589Z,2.63
2023-02-20T04:11:52.720Z,2.60
2023-02-20T04:14:23.549Z,2.70
2023-02-20T04:17:16.489Z,2.60
2023-02-20T04:19:44.573Z,2.63
2023-02-20T04:22:21.715Z,2.70
2023-02-20T04:25:21.209Z,2.60
2023-02-20T04:27:48.807Z,2.57
2023-02-20T04:30:16.171Z,2.60
2023-02-20T04:32:44.984Z,2.63
2023-02-20T04:35:20.176Z,2.70
2023-02-20T04:37:49.138Z,2.60
2023-02-20T04:40:21.839Z,2.60
2023-02-20T04:42:48.930Z,2.60
2023-02-20T04:45:20.079Z,2.67
2023-02-20T04:47:47.412Z,2.63
2023-02-20T04:50:28.424Z,2.67
2023-02-20T04:52:57.681Z,2.70
2023-02-20T04:55:26.557Z,2.63
2023-02-20T04:57:57.788Z,2.60
2023-02-20T05:00:28.822Z,2.67
2023-02-20T05:02:56.392Z,2.63
2023-02-20T05:05:28.822Z,2.70
2023-02-20T05:08:07.591Z,2.70
2023-02-20T05:10:36.050Z,2.60
2023-02-20T05:13:03.943Z,2.70
2023-02-20T05:15:32.485Z,2.57
2023-02-20T05:17:59.513Z,2.70
2023-02-20T05:20:47.055Z,2.70
2023-02-20T05:23:14.346Z,2.60
2023-02-20T05:25:41.826Z,2.70
2023-02-20T05:28:09.215Z,2.70
2023-02-20T05:30:36.671Z,2.60
2023-02-20T05:33:03.795Z,2.60
2023-02-20T05:35:30.848Z,2.63
2023-02-20T05:37:57.842Z,2.63
2023-02-20T05:40:24.853Z,2.60
2023-02-20T05:42:52.388Z,2.70
2023-02-20T05:45:19.864Z,2.67
2023-02-20T05:47:46.840Z,2.60
2023-02-20T05:50:13.978Z,2.60
2023-02-20T05:52:41.434Z,2.60
2023-02-20T05:55:08.893Z,2.60
2023-02-20T05:57:36.354Z,2.60
2023-02-20T06:00:04.417Z,2.60
2023-02-20T06:02:39.462Z,2.60
2023-02-20T06:05:07.619Z,2.60
2023-02-20T06:07:35.726Z,2.57
2023-02-20T06:10:04.602Z,2.70
2023-02-20T06:12:32.005Z,2.60
2023-02-20T06:14:59.030Z,2.60
2023-02-20T06:17:25.990Z,2.63
2023-02-20T06:19:53.435Z,2.60
2023-02-20T06:22:20.826Z,2.67
2023-02-20T06:24:48.602Z,2.60
2023-02-20T06:27:17.593Z,2.60
2023-02-20T06:29:48.263Z,2.60
2023-02-20T06:32:16.681Z,2.70
2023-02-20T06:34:46.886Z,2.60
2023-02-20T06:37:14.139Z,2.60
2023-02-20T06:39:42.987Z,2.70
2023-02-20T06:42:10.444Z,2.60
2023-02-20T06:44:37.962Z,2.63
2023-02-20T06:47:08.856Z,2.70
2023-02-20T06:49:37.612Z,2.70
2023-02-20T06:52:06.719Z,2.67
2023-02-20T06:54:34.420Z,2.67
2023-02-20T06:57:02.524Z,2.70
2023-02-20T06:59:29.938Z,2.60
2023-02-20T07:01:57.337Z,2.70
2023-02-20T07:04:29.369Z,2.70
2023-02-20T07:06:56.971Z,2.60
2023-02-20T07:09:25.164Z,2.63
2023-02-20T07:11:53.601Z,2.70
2023-02-20T07:14:22.328Z,2.67
2023-02-20T07:16:49.287Z,2.63
2023-02-20T07:19:16.750Z,2.73
2023-02-20T07:21:46.687Z,2.60
2023-02-20T07:24:14.105Z,2.70
2023-02-20T07:26:41.133Z,2.60
2023-02-20T07:29:08.862Z,2.70
2023-02-20T07:31:36.351Z,2.63
2023-02-20T07:34:03.889Z,2.60
2023-02-20T07:36:36.674Z,2.63
2023-02-20T07:39:06.687Z,2.67
2023-02-20T07:41:36.866Z,2.60
2023-02-20T07:44:06.271Z,2.60
2023-02-20T07:46:34.336Z,2.70
2023-02-20T07:49:05.118Z,2.57
2023-02-20T07:51:32.970Z,2.60
2023-02-20T07:54:00.590Z,2.70
2023-02-20T07:56:28.032Z,2.60
2023-02-20T07:58:55.449Z,2.63
2023-02-20T08:01:23.017Z,2.70
2023-02-20T08:03:50.013Z,2.60
2023-02-20T08:06:19.815Z,2.60
2023-02-20T08:08:53.052Z,2.60
2023-02-20T08:11:23.278Z,2.70
2023-02-20T08:13:51.563Z,2.60
2023-02-20T08:16:19.112Z,2.60
2023-02-20T08:18:46.550Z,2.50
2023-02-20T08:21:14.003Z,2.60
2023-02-20T08:23:40.991Z,2.60
2023-02-20T08:26:08.542Z,2.60
2023-02-20T08:28:36.170Z,2.53
2023-02-20T08:31:03.582Z,2.57
2023-02-20T08:33:31.108Z,2.60
2023-02-20T08:35:58.941Z,2.60
2023-02-20T08:38:36.507Z,2.50
2023-02-20T08:41:07.553Z,2.53
2023-02-20T08:43:37.222Z,2.50
2023-02-20T08:46:07.040Z,2.50
2023-02-20T08:48:35.484Z,2.63
2023-02-20T08:51:03.178Z,2.57
2023-02-20T08:53:30.671Z,2.63
2023-02-20T08:55:58.279Z,2.63
2023-02-20T08:58:26.617Z,2.70
2023-02-20T09:03:51.314Z,2.60
2023-02-20T09:06:18.737Z,2.70
2023-02-20T09:08:46.117Z,2.60
2023-02-20T09:11:14.468Z,2.47
2023-02-20T09:13:46.994Z,2.57
2023-02-20T09:16:19.874Z,2.50
2023-02-20T09:18:47.832Z,2.67
2023-02-20T09:21:19.428Z,2.60
2023-02-20T09:23:47.065Z,2.80
2023-02-20T09:26:14.762Z,2.80
2023-02-20T09:28:45.608Z,2.60
2023-02-20T09:31:13.554Z,2.70
2023-02-20T09:33:50.905Z,2.70
2023-02-20T09:36:18.887Z,2.50
2023-02-20T09:38:46.305Z,2.50
2023-02-20T09:41:45.966Z,2.67
2023-02-20T09:44:39.011Z,2.40
2023-02-20T09:47:34.502Z,2.60
2023-02-20T09:50:13.103Z,2.53
2023-02-20T09:52:45.702Z,2.70
2023-02-20T09:55:20.571Z,2.50
2023-02-20T09:57:55.468Z,2.60
2023-02-20T10:00:34.875Z,2.67
2023-02-20T10:03:35.931Z,2.50
2023-02-20T10:06:16.494Z,2.37
2023-02-20T10:08:44.270Z,2.40
2023-02-20T10:11:52.982Z,2.50
2023-02-20T10:14:41.149Z,2.57
2023-02-20T10:17:34.241Z,2.53
2023-02-20T10:20:27.316Z,2.57
2023-02-20T10:23:30.717Z,2.53
2023-02-20T10:26:05.438Z,2.47
2023-02-20T10:28:33.156Z,2.50
2023-02-20T10:31:18.407Z,2.60
2023-02-20T10:34:38.223Z,2.60
2023-02-20T10:37:24.147Z,2.53
2023-02-20T10:40:40.451Z,2.50
2023-02-20T10:43:42.445Z,2.50
2023-02-20T10:47:06.229Z,2.70
2023-02-20T10:49:57.385Z,2.33
2023-02-20T10:52:42.096Z,2.37
2023-02-20T10:55:39.822Z,2.57
2023-02-20T10:58:28.197Z,2.83
2023-02-20T11:01:01.630Z,2.80
2023-02-20T11:03:47.636Z,2.70
2023-02-20T11:06:23.153Z,2.87
2023-02-20T11:08:50.723Z,3.07
2023-02-20T11:11:44.111Z,3.07
2023-02-20T11:14:40.093Z,2.80
2023-02-20T11:17:19.234Z,3.00
2023-02-20T11:19:54.058Z,2.77
2023-02-20T11:22:49.266Z,2.63
2023-02-20T11:25:27.932Z,2.90
2023-02-20T11:28:18.848Z,2.80
2023-02-20T11:31:07.395Z,2.80
2023-02-20T11:33:45.331Z,2.87
2023-02-20T11:36:22.823Z,2.90
2023-02-20T11:39:03.211Z,2.70
2023-02-20T11:41:37.077Z,2.83
2023-02-20T11:44:23.640Z,2.70
2023-02-20T11:47:28.111Z,2.57
2023-02-20T11:50:21.012Z,2.30
2023-02-20T11:53:07.313Z,2.13
2023-02-20T11:55:35.419Z,2.20
2023-02-20T11:58:03.746Z,2.10
2023-02-20T12:00:50.670Z,2.20
2023-02-20T12:03:32.579Z,2.20
2023-02-20T12:06:22.432Z,2.10
2023-02-20T12:08:57.277Z,2.07
2023-02-20T12:11:27.827Z,2.17
2023-02-20T12:13:59.559Z,2.00
2023-02-20T12:17:06.611Z,2.10
2023-02-20T12:20:01.395Z,2.20
2023-02-20T12:22:39.204Z,2.17
2023-02-20T12:25:47.355Z,2.20
2023-02-20T12:28:34.734Z,2.20
2023-02-20T12:31:39.135Z,2.20
2023-02-20T12:34:50.129Z,2.10
2023-02-20T12:37:40.059Z,2.10
2023-02-20T12:41:06.144Z,2.10
2023-02-20T12:44:24.204Z,2.20
2023-02-20T12:47:38.213Z,2.20
2023-02-20T12:50:47.868Z,2.30
2023-02-20T12:54:17.047Z,2.30
2023-02-20T12:57:14.723Z,2.50
2023-02-20T12:59:58.013Z,2.37
2023-02-20T13:02:46.671Z,2.20
2023-02-20T13:05:22.922Z,2.30
2023-02-20T13:07:55.727Z,2.40
2023-02-20T13:10:33.867Z,2.17
2023-02-20T13:13:01.813Z,2.23
2023-02-20T13:15:51.904Z,2.37
2023-02-20T13:18:37.112Z,2.30
2023-02-20T13:21:12.198Z,2.27
2023-02-20T13:23:42.069Z,2.17
2023-02-20T13:26:31.172Z,2.30
2023-02-20T13:29:26.604Z,2.40
2023-02-20T13:32:26.323Z,2.17
2023-02-20T13:34:56.486Z,2.30
2023-02-20T13:37:55.236Z,2.30
2023-02-20T13:40:28.307Z,2.30
2023-02-20T13:43:16.239Z,2.20
2023-02-20T13:45:46.740Z,2.10
2023-02-20T13:48:42.768Z,2.17
2023-02-20T13:51:16.166Z,2.20
2023-02-20T13:53:49.284Z,2.17
2023-02-20T13:56:38.973Z,2.13
2023-02-20T13:59:17.970Z,2.20
2023-02-20T14:02:30.076Z,2.13
2023-02-20T14:05:06.081Z,2.30
2023-02-20T14:07:40.700Z,2.10
2023-02-20T14:10:36.985Z,2.20
2023-02-20T14:13:14.111Z,2.27
2023-02-20T14:15:58.704Z,2.27
2023-02-20T14:18:29.406Z,2.20
2023-02-20T14:21:20.163Z,2.30
2023-02-20T14:23:49.790Z,2.40
2023-02-20T14:26:34.803Z,2.30
2023-02-20T14:29:02.246Z,2.23
2023-02-20T14:31:38.184Z,2.20
2023-02-20T14:34:41.631Z,2.20
2023-02-20T14:37:26.886Z,2.30
2023-02-20T14:40:19.061Z,2.30
2023-02-20T14:42:47.235Z,2.40
2023-02-20T14:45:21.804Z,2.37
2023-02-20T14:48:01.263Z,2.40
2023-02-20T14:50:34.710Z,2.20
2023-02-20T14:53:16.507Z,2.40
2023-02-20T14:55:44.964Z,2.20
2023-02-20T14:58:18.769Z,2.30
2023-02-20T15:00:48.868Z,2.37
2023-02-20T15:03:31.018Z,2.37
2023-02-20T15:06:06.051Z,2.30
2023-02-20T15:08:37.674Z,2.23
2023-02-20T15:11:15.181Z,2.30
2023-02-20T15:13:45.686Z,2.33
2023-02-20T15:16:29.016Z,2.20
2023-02-20T15:18:56.357Z,2.23
2023-02-20T15:21:42.225Z,2.27
2023-02-20T15:24:40.540Z,2.40
2023-02-20T15:27:19.145Z,2.33
2023-02-20T15:29:47.707Z,2.30
2023-02-20T15:32:18.036Z,2.20
2023-02-20T15:34:53.975Z,2.40
2023-02-20T15:37:37.922Z,2.30
2023-02-20T15:40:30.338Z,2.30
2023-02-20T15:42:58.458Z,2.30
2023-02-20T15:45:29.239Z,2.40
2023-02-20T15:47:58.504Z,2.30
2023-02-20T15:50:27.240Z,2.30
2023-02-20T15:52:55.399Z,2.20
2023-02-20T15:55:24.134Z,2.17
2023-02-20T15:57:56.594Z,2.30
2023-02-20T16:00:32.770Z,2.50
2023-02-20T16:03:02.100Z,2.57
2023-02-20T16:05:29.326Z,2.60
2023-02-20T16:07:56.389Z,2.77
2023-02-20T16:10:25.477Z,2.70
2023-02-20T16:12:57.053Z,2.57
2023-02-20T16:15:26.183Z,2.50
2023-02-20T16:17:54.453Z,2.40
2023-02-20T16:20:27.554Z,2.50
2023-02-20T16:22:55.328Z,2.47
2023-02-20T16:25:24.605Z,2.50
2023-02-20T16:27:54.601Z,2.60
2023-02-20T16:30:38.219Z,2.40
2023-02-20T16:33:19.086Z,2.47
2023-02-20T16:35:49.526Z,2.40
2023-02-20T16:38:17.306Z,2.50
2023-02-20T16:40:44.314Z,2.50
2023-02-20T16:43:15.115Z,2.50
2023-02-20T16:45:43.275Z,2.50
2023-02-20T16:48:18.821Z,2.57
2023-02-20T16:50:53.013Z,2.50
2023-02-20T16:53:21.172Z,2.50
2023-02-20T16:55:48.826Z,2.60
2023-02-20T16:58:16.664Z,2.60
2023-02-20T17:00:56.494Z,2.50
2023-02-20T17:03:25.480Z,2.57
2023-02-20T17:05:59.536Z,2.60
2023-02-20T17:08:29.608Z,2.60
2023-02-20T17:10:57.051Z,2.60
2023-02-20T17:13:24.476Z,2.60
2023-02-20T17:15:51.937Z,2.60
2023-02-20T17:18:18.936Z,2.60
2023-02-20T17:20:46.031Z,2.60
2023-02-20T17:23:13.435Z,2.60
2023-02-20T17:25:40.935Z,2.60
2023-02-20T17:28:08.391Z,2.57
2023-02-20T17:30:35.905Z,2.60
2023-02-20T17:33:03.308Z,2.67
2023-02-20T17:35:30.374Z,2.70
2023-02-20T17:37:57.781Z,2.70
2023-02-20T17:40:26.092Z,2.57
2023-02-20T17:42:53.455Z,2.60
2023-02-20T17:45:20.858Z,2.60
2023-02-20T17:47:48.248Z,2.63
2023-02-20T17:50:18.607Z,2.80
2023-02-20T17:52:46.851Z,2.70
2023-02-20T17:55:25.155Z,2.70
2023-02-20T17:57:53.096Z,2.60
2023-02-20T18:00:21.709Z,2.60
2023-02-20T18:02:49.571Z,2.70
2023-02-20T18:05:17.026Z,2.70
2023-02-20T18:07:44.815Z,2.70
2023-02-20T18:10:12.210Z,2.70
2023-02-20T18:12:40.092Z,2.60
2023-02-20T18:15:07.617Z,2.80
2023-02-20T18:17:37.241Z,2.63
2023-02-20T18:20:04.964Z,2.60
2023-02-20T18:22:32.399Z,2.70
2023-02-20T18:24:59.776Z,2.60
2023-02-20T18:27:27.430Z,2.57
2023-02-20T18:29:54.822Z,2.60
2023-02-20T18:32:22.353Z,2.60
2023-02-20T18:34:49.357Z,2.53
2023-02-20T18:37:16.804Z,2.60
2023-02-20T18:39:45.749Z,2.60
2023-02-20T18:42:13.218Z,2.60
2023-02-20T18:44:40.584Z,2.67
2023-02-20T18:47:10.244Z,2.67
2023-02-20T18:49:37.205Z,2.60
2023-02-20T18:52:05.019Z,2.70
2023-02-20T18:54:34.926Z,2.67
2023-02-20T18:57:03.796Z,2.70
2023-02-20T18:59:31.464Z,2.60
2023-02-20T19:01:59.477Z,2.67
2023-02-20T19:04:26.913Z,2.60
2023-02-20T19:06:54.022Z,2.67
2023-02-20T19:09:25.410Z,2.70
2023-02-20T19:11:56.271Z,2.70
2023-02-20T19:14:26.362Z,2.67
2023-02-20T19:16:59.125Z,2.60
2023-02-20T19:19:30.689Z,2.63
2023-02-20T19:21:58.551Z,2.60
2023-02-20T19:24:25.972Z,2.60
2023-02-20T19:26:53.232Z,2.70
2023-02-20T19:29:20.797Z,2.60
2023-02-20T19:31:48.211Z,2.67
2023-02-20T19:34:16.006Z,2.70
2023-02-20T19:36:43.789Z,2.60
2023-02-20T19:39:12.897Z,2.63
2023-02-20T19:41:40.203Z,2.60
2023-02-20T19:44:13.209Z,2.60
2023-02-20T19:46:40.317Z,2.60
2023-02-20T19:49:12.387Z,2.67
2023-02-20T19:51:49.458Z,2.70
2023-02-20T19:54:19.190Z,2.67
2023-02-20T19:56:53.701Z,2.63
2023-02-20T19:59:22.120Z,2.63
2023-02-20T20:02:01.067Z,2.67
2023-02-20T20:04:33.193Z,2.63
2023-02-20T20:07:02.763Z,2.70
2023-02-20T20:09:36.686Z,2.63
2023-02-20T20:12:30.047Z,2.67
2023-02-20T20:14:57.372Z,2.70
2023-02-20T20:17:24.884Z,2.70
2023-02-20T20:20:00.615Z,2.70
2023-02-20T20:22:31.117Z,2.63
2023-02-20T20:24:59.941Z,2.70
2023-02-20T20:27:27.497Z,2.70
2023-02-20T20:29:54.828Z,2.70
2023-02-20T20:32:22.495Z,2.63
2023-02-20T20:34:55.306Z,2.70
2023-02-20T20:37:25.554Z,2.70
2023-02-20T20:39:56.269Z,2.70
2023-02-20T20:42:26.777Z,2.70
2023-02-20T20:44:59.282Z,2.70
2023-02-20T20:47:29.937Z,2.77
2023-02-20T20:49:58.631Z,2.80
2023-02-20T20:52:26.801Z,2.70
2023-02-20T20:54:57.543Z,2.70
2023-02-20T20:57:29.919Z,2.60
2023-02-20T21:00:00.293Z,2.60
2023-02-20T21:02:28.983Z,2.70
2023-02-20T21:05:09.309Z,2.77
2023-02-20T21:07:38.341Z,2.70
2023-02-20T21:10:06.471Z,2.70
2023-02-20T21:12:34.649Z,2.70
2023-02-20T21:15:02.967Z,2.73
2023-02-20T21:17:30.533Z,2.63
2023-02-20T21:19:58.730Z,2.70
2023-02-20T21:22:26.283Z,2.70
2023-02-20T21:24:53.356Z,2.70
2023-02-20T21:27:20.949Z,2.70
2023-02-20T21:29:48.085Z,2.77
2023-02-20T21:32:15.500Z,2.77
2023-02-20T21:34:43.558Z,2.80
2023-02-20T21:37:12.132Z,2.77
2023-02-20T21:39:39.139Z,2.70
2023-02-20T21:42:25.074Z,2.87
2023-02-20T21:44:52.510Z,2.70
2023-02-20T21:47:19.943Z,2.73
2023-02-20T21:49:48.733Z,2.73
2023-02-20T21:52:18.676Z,2.70
2023-02-20T21:54:53.697Z,2.67
2023-02-20T21:57:21.378Z,2.60
2023-02-20T21:59:48.827Z,2.73
2023-02-20T22:02:20.372Z,2.70
2023-02-20T22:04:48.386Z,2.70
2023-02-20T22:07:35.089Z,2.70
2023-02-20T22:10:22.073Z,2.70
2023-02-20T22:13:07.807Z,2.77
2023-02-20T22:15:53.656Z,2.70
2023-02-20T22:18:39.447Z,2.70
2023-02-20T22:21:25.317Z,2.80
2023-02-20T22:24:11.080Z,2.70
2023-02-20T22:26:57.061Z,2.70
2023-02-20T22:29:42.937Z,2.70
2023-02-20T22:32:28.848Z,2.77
2023-02-20T22:35:14.837Z,2.77
2023-02-20T22:38:04.599Z,2.70
2023-02-20T22:40:50.305Z,2.70
2023-02-20T22:43:36.688Z,2.70
2023-02-20T22:46:23.418Z,2.70
2023-02-20T22:49:09.721Z,2.70
2023-02-20T22:51:55.570Z,2.67
2023-02-20T22:54:46.197Z,2.70
2023-02-20T22:57:34.131Z,2.70
2023-02-20T23:00:19.983Z,2.80
2023-02-20T23:03:05.732Z,2.83
2023-02-20T23:05:51.407Z,2.80
2023-02-20T23:08:37.263Z,2.87
2023-02-20T23:11:24.737Z,2.83
2023-02-20T23:14:10.451Z,2.90
2023-02-20T23:16:56.249Z,2.90
2023-02-20T23:19:42.329Z,2.90
2023-02-20T23:22:28.189Z,2.80
2023-02-20T23:25:14.137Z,2.90
2023-02-20T23:28:00.740Z,2.83
2023-02-20T23:30:46.658Z,3.00
2023-02-20T23:33:32.644Z,2.90
2023-02-20T23:36:18.416Z,2.90
2023-02-20T23:39:04.473Z,2.93
2023-02-20T23:41:50.060Z,2.90
2023-02-20T23:44:35.800Z,2.97
2023-02-20T23:47:21.695Z,3.00
2023-02-20T23:50:07.579Z,2.93
2023-02-20T23:52:53.434Z,2.97
2023-02-20T23:55:39.398Z,2.90
2023-02-20T23:58:25.234Z,2.93
